sensor_id;sensor_type;location;lat;lon;timestamp;P1;durP1;ratioP1;P2;durP2;ratioP2
12155;SDS011;6141;49.092;8.516;2022-08-25T00:02:25;2.47;;;2.07;;
12155;SDS011;6141;49.092;8.516;2022-08-25T00:13:46;3.27;;;2.10;;
12155;SDS011;6141;49.092;8.516;2022-08-25T00:17:50;5.17;;;2.07;;
12155;SDS011;6141;49.092;8.516;2022-08-25T00:21:30;3.97;;;2.40;;
12155;SDS011;6141;49.092;8.516;2022-08-25T00:35:31;4.57;;;2.30;;
12155;SDS011;6141;49.092;8.516;2022-08-25T00:38:02;2.27;;;2.00;;
12155;SDS011;6141;49.092;8.516;2022-08-25T00:41:05;2.40;;;2.20;;
12155;SDS011;6141;49.092;8.516;2022-08-25T00:44:14;3.60;;;2.20;;
12155;SDS011;6141;49.092;8.516;2022-08-25T00:52:43;2.40;;;2.20;;
12155;SDS011;6141;49.092;8.516;2022-08-25T01:01:38;3.63;;;2.37;;
12155;SDS011;6141;49.092;8.516;2022-08-25T01:09:12;2.20;;;1.93;;
12155;SDS011;6141;49.092;8.516;2022-08-25T01:13:46;2.60;;;2.37;;
12155;SDS011;6141;49.092;8.516;2022-08-25T01:16:32;3.47;;;2.70;;
12155;SDS011;6141;49.092;8.516;2022-08-25T01:19:05;3.27;;;2.37;;
12155;SDS011;6141;49.092;8.516;2022-08-25T01:21:43;2.30;;;2.10;;
12155;SDS011;6141;49.092;8.516;2022-08-25T01:24:15;4.00;;;2.40;;
12155;SDS011;6141;49.092;8.516;2022-08-25T01:26:49;2.40;;;2.20;;
12155;SDS011;6141;49.092;8.516;2022-08-25T01:29:18;2.57;;;2.37;;
12155;SDS011;6141;49.092;8.516;2022-08-25T01:31:52;2.43;;;2.23;;
12155;SDS011;6141;49.092;8.516;2022-08-25T01:34:23;3.53;;;2.70;;
12155;SDS011;6141;49.092;8.516;2022-08-25T01:36:54;2.60;;;2.40;;
12155;SDS011;6141;49.092;8.516;2022-08-25T01:39:24;2.57;;;2.37;;
12155;SDS011;6141;49.092;8.516;2022-08-25T01:41:58;3.33;;;2.20;;
12155;SDS011;6141;49.092;8.516;2022-08-25T01:44:40;3.10;;;2.57;;
12155;SDS011;6141;49.092;8.516;2022-08-25T01:47:13;5.00;;;2.70;;
12155;SDS011;6141;49.092;8.516;2022-08-25T01:49:42;3.13;;;2.83;;
12155;SDS011;6141;49.092;8.516;2022-08-25T01:52:14;2.87;;;2.57;;
12155;SDS011;6141;49.092;8.516;2022-08-25T01:54:46;4.97;;;2.73;;
12155;SDS011;6141;49.092;8.516;2022-08-25T01:57:15;2.90;;;2.67;;
12155;SDS011;6141;49.092;8.516;2022-08-25T01:59:46;2.73;;;2.40;;
12155;SDS011;6141;49.092;8.516;2022-08-25T02:02:14;2.67;;;2.47;;
12155;SDS011;6141;49.092;8.516;2022-08-25T02:04:44;3.13;;;2.83;;
12155;SDS011;6141;49.092;8.516;2022-08-25T02:07:18;3.93;;;2.40;;
12155;SDS011;6141;49.092;8.516;2022-08-25T02:09:49;4.03;;;2.63;;
12155;SDS011;6141;49.092;8.516;2022-08-25T02:12:19;3.53;;;2.73;;
12155;SDS011;6141;49.092;8.516;2022-08-25T02:14:47;5.13;;;3.47;;
12155;SDS011;6141;49.092;8.516;2022-08-25T02:17:16;4.00;;;2.63;;
12155;SDS011;6141;49.092;8.516;2022-08-25T02:19:44;4.77;;;2.73;;
12155;SDS011;6141;49.092;8.516;2022-08-25T02:22:12;4.13;;;2.90;;
12155;SDS011;6141;49.092;8.516;2022-08-25T02:24:48;3.43;;;3.03;;
12155;SDS011;6141;49.092;8.516;2022-08-25T02:27:16;5.63;;;3.20;;
12155;SDS011;6141;49.092;8.516;2022-08-25T02:29:45;4.40;;;3.40;;
12155;SDS011;6141;49.092;8.516;2022-08-25T02:32:13;3.43;;;3.07;;
12155;SDS011;6141;49.092;8.516;2022-08-25T02:34:42;3.30;;;3.00;;
12155;SDS011;6141;49.092;8.516;2022-08-25T02:37:10;3.90;;;3.20;;
12155;SDS011;6141;49.092;8.516;2022-08-25T02:39:41;4.00;;;3.53;;
12155;SDS011;6141;49.092;8.516;2022-08-25T02:42:09;3.63;;;3.33;;
12155;SDS011;6141;49.092;8.516;2022-08-25T02:44:38;4.50;;;3.23;;
12155;SDS011;6141;49.092;8.516;2022-08-25T02:47:06;4.90;;;3.13;;
12155;SDS011;6141;49.092;8.516;2022-08-25T02:49:34;3.60;;;3.27;;
12155;SDS011;6141;49.092;8.516;2022-08-25T02:52:05;4.03;;;3.40;;
12155;SDS011;6141;49.092;8.516;2022-08-25T02:54:33;3.53;;;3.23;;
12155;SDS011;6141;49.092;8.516;2022-08-25T02:57:03;5.77;;;3.67;;
12155;SDS011;6141;49.092;8.516;2022-08-25T02:59:32;3.70;;;3.40;;
12155;SDS011;6141;49.092;8.516;2022-08-25T03:02:01;3.63;;;3.33;;
12155;SDS011;6141;49.092;8.516;2022-08-25T03:04:47;7.33;;;3.80;;
12155;SDS011;6141;49.092;8.516;2022-08-25T03:55:57;4.73;;;3.67;;
12155;SDS011;6141;49.092;8.516;2022-08-25T03:58:25;6.20;;;3.60;;
12155;SDS011;6141;49.092;8.516;2022-08-25T04:00:59;4.10;;;3.70;;
12155;SDS011;6141;49.092;8.516;2022-08-25T04:03:30;3.73;;;3.43;;
12155;SDS011;6141;49.092;8.516;2022-08-25T04:06:01;5.70;;;3.60;;
12155;SDS011;6141;49.092;8.516;2022-08-25T04:08:34;4.30;;;3.67;;
12155;SDS011;6141;49.092;8.516;2022-08-25T04:11:06;5.60;;;3.60;;
12155;SDS011;6141;49.092;8.516;2022-08-25T04:13:39;4.17;;;3.23;;
12155;SDS011;6141;49.092;8.516;2022-08-25T04:16:09;3.67;;;3.37;;
12155;SDS011;6141;49.092;8.516;2022-08-25T04:18:42;3.63;;;3.33;;
12155;SDS011;6141;49.092;8.516;2022-08-25T04:21:14;5.17;;;3.73;;
12155;SDS011;6141;49.092;8.516;2022-08-25T04:23:48;3.87;;;3.47;;
12155;SDS011;6141;49.092;8.516;2022-08-25T04:26:24;4.50;;;3.53;;
12155;SDS011;6141;49.092;8.516;2022-08-25T04:28:59;3.73;;;3.40;;
12155;SDS011;6141;49.092;8.516;2022-08-25T04:31:29;5.57;;;3.90;;
12155;SDS011;6141;49.092;8.516;2022-08-25T04:34:00;4.37;;;3.60;;
12155;SDS011;6141;49.092;8.516;2022-08-25T04:36:39;6.73;;;3.93;;
12155;SDS011;6141;49.092;8.516;2022-08-25T04:39:08;7.03;;;4.00;;
12155;SDS011;6141;49.092;8.516;2022-08-25T04:41:38;4.90;;;4.00;;
12155;SDS011;6141;49.092;8.516;2022-08-25T04:44:22;4.67;;;3.80;;
12155;SDS011;6141;49.092;8.516;2022-08-25T04:46:53;5.93;;;3.97;;
12155;SDS011;6141;49.092;8.516;2022-08-25T04:49:22;6.13;;;4.20;;
12155;SDS011;6141;49.092;8.516;2022-08-25T04:51:50;4.60;;;3.73;;
12155;SDS011;6141;49.092;8.516;2022-08-25T04:54:19;4.30;;;3.90;;
12155;SDS011;6141;49.092;8.516;2022-08-25T04:56:51;5.13;;;4.03;;
12155;SDS011;6141;49.092;8.516;2022-08-25T04:59:24;5.07;;;4.20;;
12155;SDS011;6141;49.092;8.516;2022-08-25T05:01:57;5.03;;;4.00;;
12155;SDS011;6141;49.092;8.516;2022-08-25T05:04:28;5.00;;;4.10;;
12155;SDS011;6141;49.092;8.516;2022-08-25T05:06:58;4.67;;;4.10;;
12155;SDS011;6141;49.092;8.516;2022-08-25T05:09:27;6.70;;;4.17;;
12155;SDS011;6141;49.092;8.516;2022-08-25T05:12:00;5.00;;;4.20;;
12155;SDS011;6141;49.092;8.516;2022-08-25T05:14:29;4.83;;;4.00;;
12155;SDS011;6141;49.092;8.516;2022-08-25T05:17:01;4.27;;;3.53;;
12155;SDS011;6141;49.092;8.516;2022-08-25T05:19:33;4.93;;;4.27;;
12155;SDS011;6141;49.092;8.516;2022-08-25T05:27:07;4.83;;;4.07;;
12155;SDS011;6141;49.092;8.516;2022-08-25T05:29:35;6.27;;;3.90;;
12155;SDS011;6141;49.092;8.516;2022-08-25T05:32:04;5.50;;;4.63;;
12155;SDS011;6141;49.092;8.516;2022-08-25T05:34:32;6.03;;;4.00;;
12155;SDS011;6141;49.092;8.516;2022-08-25T05:37:02;4.60;;;4.03;;
12155;SDS011;6141;49.092;8.516;2022-08-25T05:39:41;4.70;;;4.30;;
12155;SDS011;6141;49.092;8.516;2022-08-25T05:42:44;5.50;;;4.47;;
12155;SDS011;6141;49.092;8.516;2022-08-25T05:45:32;6.60;;;4.70;;
12155;SDS011;6141;49.092;8.516;2022-08-25T05:48:49;5.40;;;4.90;;
12155;SDS011;6141;49.092;8.516;2022-08-25T07:05:53;7.33;;;6.17;;
12155;SDS011;6141;49.092;8.516;2022-08-25T07:08:34;8.53;;;6.53;;
12155;SDS011;6141;49.092;8.516;2022-08-25T07:11:12;6.80;;;6.10;;
12155;SDS011;6141;49.092;8.516;2022-08-25T07:14:07;7.37;;;5.87;;
12155;SDS011;6141;49.092;8.516;2022-08-25T10:03:09;7.28;;;3.85;;
12155;SDS011;6141;49.092;8.516;2022-08-25T10:05:56;4.00;;;3.53;;
12155;SDS011;6141;49.092;8.516;2022-08-25T10:08:30;4.03;;;3.63;;
12155;SDS011;6141;49.092;8.516;2022-08-25T10:11:03;5.72;;;4.03;;
12155;SDS011;6141;49.092;8.516;2022-08-25T10:13:59;3.78;;;3.35;;
12155;SDS011;6141;49.092;8.516;2022-08-25T10:16:51;5.55;;;3.70;;
12155;SDS011;6141;49.092;8.516;2022-08-25T10:19:34;6.10;;;3.60;;
12155;SDS011;6141;49.092;8.516;2022-08-25T10:22:19;4.00;;;3.60;;
12155;SDS011;6141;49.092;8.516;2022-08-25T10:25:14;6.80;;;3.45;;
12155;SDS011;6141;49.092;8.516;2022-08-25T10:30:51;4.75;;;3.70;;
12155;SDS011;6141;49.092;8.516;2022-08-25T10:46:48;3.90;;;3.60;;
12155;SDS011;6141;49.092;8.516;2022-08-25T10:49:25;5.63;;;3.40;;
12155;SDS011;6141;49.092;8.516;2022-08-25T10:53:29;4.75;;;3.53;;
12155;SDS011;6141;49.092;8.516;2022-08-25T11:05:22;4.68;;;3.88;;
12155;SDS011;6141;49.092;8.516;2022-08-25T12:23:33;4.07;;;3.78;;
12155;SDS011;6141;49.092;8.516;2022-08-25T12:26:39;5.28;;;3.67;;
12155;SDS011;6141;49.092;8.516;2022-08-25T12:29:19;4.32;;;3.38;;
12155;SDS011;6141;49.092;8.516;2022-08-25T12:31:57;5.38;;;3.95;;
12155;SDS011;6141;49.092;8.516;2022-08-25T12:34:50;4.45;;;3.70;;
12155;SDS011;6141;49.092;8.516;2022-08-25T12:38:02;4.03;;;3.63;;
12155;SDS011;6141;49.092;8.516;2022-08-25T12:44:14;3.65;;;3.35;;
12155;SDS011;6141;49.092;8.516;2022-08-25T12:56:58;4.05;;;3.58;;
12155;SDS011;6141;49.092;8.516;2022-08-25T12:59:47;4.18;;;3.40;;
12155;SDS011;6141;49.092;8.516;2022-08-25T13:11:11;4.45;;;3.38;;
12155;SDS011;6141;49.092;8.516;2022-08-25T13:26:36;6.53;;;3.10;;
12155;SDS011;6141;49.092;8.516;2022-08-25T14:04:27;3.75;;;2.90;;
12155;SDS011;6141;49.092;8.516;2022-08-25T14:07:25;3.67;;;3.17;;
12155;SDS011;6141;49.092;8.516;2022-08-25T14:10:52;3.30;;;3.00;;
12155;SDS011;6141;49.092;8.516;2022-08-25T14:13:42;5.72;;;3.30;;
12155;SDS011;6141;49.092;8.516;2022-08-25T14:16:23;3.20;;;2.90;;
12155;SDS011;6141;49.092;8.516;2022-08-25T14:19:23;4.55;;;3.28;;
12155;SDS011;6141;49.092;8.516;2022-08-25T14:21:53;5.35;;;3.30;;
12155;SDS011;6141;49.092;8.516;2022-08-25T14:24:51;3.55;;;3.25;;
12155;SDS011;6141;49.092;8.516;2022-08-25T14:27:42;3.58;;;3.25;;
12155;SDS011;6141;49.092;8.516;2022-08-25T14:31:22;4.30;;;3.15;;
12155;SDS011;6141;49.092;8.516;2022-08-25T14:34:02;4.22;;;3.10;;
12155;SDS011;6141;49.092;8.516;2022-08-25T14:36:57;4.05;;;3.03;;
12155;SDS011;6141;49.092;8.516;2022-08-25T17:14:53;3.20;;;2.70;;
12155;SDS011;6141;49.092;8.516;2022-08-25T17:21:45;3.30;;;2.25;;
12155;SDS011;6141;49.092;8.516;2022-08-25T17:24:41;3.38;;;2.40;;
12155;SDS011;6141;49.092;8.516;2022-08-25T18:42:00;47.13;;;6.80;;
12155;SDS011;6141;49.092;8.516;2022-08-25T18:45:24;29.77;;;5.97;;
12155;SDS011;6141;49.092;8.516;2022-08-25T18:48:42;39.63;;;7.43;;
12155;SDS011;6141;49.092;8.516;2022-08-25T18:51:51;33.03;;;6.80;;
12155;SDS011;6141;49.092;8.516;2022-08-25T18:55:08;91.37;;;11.47;;
12155;SDS011;6141;49.092;8.516;2022-08-25T19:02:04;53.33;;;8.03;;
12155;SDS011;6141;49.092;8.516;2022-08-25T19:05:39;45.63;;;6.97;;
12155;SDS011;6141;49.092;8.516;2022-08-25T19:09:03;11.97;;;4.13;;
12155;SDS011;6141;49.092;8.516;2022-08-25T19:16:11;12.57;;;4.00;;
12155;SDS011;6141;49.092;8.516;2022-08-25T19:19:48;9.13;;;4.07;;
12155;SDS011;6141;49.092;8.516;2022-08-25T19:23:36;13.30;;;4.47;;
12155;SDS011;6141;49.092;8.516;2022-08-25T19:27:05;13.50;;;4.27;;
12155;SDS011;6141;49.092;8.516;2022-08-25T19:30:19;17.13;;;4.90;;
12155;SDS011;6141;49.092;8.516;2022-08-25T19:34:24;12.03;;;8.73;;
12155;SDS011;6141;49.092;8.516;2022-08-25T19:38:33;15.00;;;6.70;;
12155;SDS011;6141;49.092;8.516;2022-08-25T19:42:23;11.37;;;7.27;;
12155;SDS011;6141;49.092;8.516;2022-08-25T19:46:04;11.70;;;6.50;;
12155;SDS011;6141;49.092;8.516;2022-08-25T19:49:34;10.60;;;5.17;;
12155;SDS011;6141;49.092;8.516;2022-08-25T19:53:09;5.40;;;4.17;;
12155;SDS011;6141;49.092;8.516;2022-08-25T19:56:56;7.73;;;5.13;;
12155;SDS011;6141;49.092;8.516;2022-08-25T20:00:55;10.07;;;6.07;;
12155;SDS011;6141;49.092;8.516;2022-08-25T20:04:32;8.20;;;6.07;;
12155;SDS011;6141;49.092;8.516;2022-08-25T20:07:51;8.13;;;5.60;;
12155;SDS011;6141;49.092;8.516;2022-08-25T20:11:23;8.57;;;4.60;;
12155;SDS011;6141;49.092;8.516;2022-08-25T20:15:28;5.47;;;3.90;;
12155;SDS011;6141;49.092;8.516;2022-08-25T20:19:13;5.00;;;3.93;;
12155;SDS011;6141;49.092;8.516;2022-08-25T20:23:53;4.73;;;3.83;;
12155;SDS011;6141;49.092;8.516;2022-08-25T20:27:49;7.07;;;4.23;;
12155;SDS011;6141;49.092;8.516;2022-08-25T20:31:10;9.07;;;4.03;;
12155;SDS011;6141;49.092;8.516;2022-08-25T20:39:05;6.53;;;3.40;;
12155;SDS011;6141;49.092;8.516;2022-08-25T20:43:11;5.63;;;3.50;;
12155;SDS011;6141;49.092;8.516;2022-08-25T20:46:53;5.50;;;3.90;;
12155;SDS011;6141;49.092;8.516;2022-08-25T20:50:16;6.73;;;4.33;;
12155;SDS011;6141;49.092;8.516;2022-08-25T20:53:08;10.43;;;4.40;;
12155;SDS011;6141;49.092;8.516;2022-08-25T20:56:28;7.37;;;3.60;;
12155;SDS011;6141;49.092;8.516;2022-08-25T21:04:15;5.07;;;3.80;;
12155;SDS011;6141;49.092;8.516;2022-08-25T21:07:46;3.77;;;3.47;;
12155;SDS011;6141;49.092;8.516;2022-08-25T21:10:43;4.93;;;3.73;;
12155;SDS011;6141;49.092;8.516;2022-08-25T21:17:50;5.07;;;3.20;;
12155;SDS011;6141;49.092;8.516;2022-08-25T21:21:04;6.03;;;3.57;;
12155;SDS011;6141;49.092;8.516;2022-08-25T21:24:20;5.17;;;3.20;;
12155;SDS011;6141;49.092;8.516;2022-08-25T21:28:31;5.57;;;3.60;;
12155;SDS011;6141;49.092;8.516;2022-08-25T21:31:52;5.37;;;3.60;;
12155;SDS011;6141;49.092;8.516;2022-08-25T21:34:41;5.00;;;3.40;;
12155;SDS011;6141;49.092;8.516;2022-08-25T21:38:38;4.67;;;3.73;;
12155;SDS011;6141;49.092;8.516;2022-08-25T21:41:44;4.10;;;3.70;;
12155;SDS011;6141;49.092;8.516;2022-08-25T21:51:45;7.40;;;4.13;;
12155;SDS011;6141;49.092;8.516;2022-08-25T21:55:22;6.33;;;4.03;;
12155;SDS011;6141;49.092;8.516;2022-08-25T21:58:19;6.13;;;3.70;;
12155;SDS011;6141;49.092;8.516;2022-08-25T22:02:11;5.43;;;3.67;;
12155;SDS011;6141;49.092;8.516;2022-08-25T22:05:19;4.63;;;3.83;;
12155;SDS011;6141;49.092;8.516;2022-08-25T22:09:12;6.50;;;3.90;;
12155;SDS011;6141;49.092;8.516;2022-08-25T22:12:27;11.17;;;4.13;;
12155;SDS011;6141;49.092;8.516;2022-08-25T22:15:18;5.57;;;3.80;;
12155;SDS011;6141;49.092;8.516;2022-08-25T22:18:20;9.23;;;4.30;;
12155;SDS011;6141;49.092;8.516;2022-08-25T22:21:41;5.53;;;3.83;;
12155;SDS011;6141;49.092;8.516;2022-08-25T22:25:00;11.57;;;3.80;;
12155;SDS011;6141;49.092;8.516;2022-08-25T22:28:41;4.90;;;3.83;;
12155;SDS011;6141;49.092;8.516;2022-08-25T22:31:58;7.13;;;4.10;;
12155;SDS011;6141;49.092;8.516;2022-08-25T22:34:48;5.60;;;3.87;;
12155;SDS011;6141;49.092;8.516;2022-08-25T22:38:14;8.67;;;4.10;;
12155;SDS011;6141;49.092;8.516;2022-08-25T22:45:08;8.07;;;4.17;;
12155;SDS011;6141;49.092;8.516;2022-08-25T22:48:10;4.33;;;3.63;;
12155;SDS011;6141;49.092;8.516;2022-08-25T22:51:08;9.00;;;3.90;;
12155;SDS011;6141;49.092;8.516;2022-08-25T22:54:00;7.27;;;4.10;;
12155;SDS011;6141;49.092;8.516;2022-08-25T22:57:05;5.17;;;3.50;;
12155;SDS011;6141;49.092;8.516;2022-08-25T23:00:07;7.63;;;4.17;;
12155;SDS011;6141;49.092;8.516;2022-08-25T23:03:16;5.33;;;4.10;;
12155;SDS011;6141;49.092;8.516;2022-08-25T23:06:13;9.03;;;4.00;;
12155;SDS011;6141;49.092;8.516;2022-08-25T23:08:58;5.13;;;3.87;;
12155;SDS011;6141;49.092;8.516;2022-08-25T23:11:45;4.77;;;3.87;;
12155;SDS011;6141;49.092;8.516;2022-08-25T23:14:41;5.53;;;3.90;;
12155;SDS011;6141;49.092;8.516;2022-08-25T23:18:10;5.83;;;3.93;;
12155;SDS011;6141;49.092;8.516;2022-08-25T23:21:15;5.73;;;3.83;;
12155;SDS011;6141;49.092;8.516;2022-08-25T23:27:39;4.40;;;4.00;;
12155;SDS011;6141;49.092;8.516;2022-08-25T23:30:34;6.10;;;4.17;;
12155;SDS011;6141;49.092;8.516;2022-08-25T23:33:40;8.47;;;3.77;;
12155;SDS011;6141;49.092;8.516;2022-08-25T23:36:42;6.50;;;4.10;;
12155;SDS011;6141;49.092;8.516;2022-08-25T23:39:46;5.10;;;3.57;;
12155;SDS011;6141;49.092;8.516;2022-08-25T23:42:39;5.13;;;3.60;;
12155;SDS011;6141;49.092;8.516;2022-08-25T23:49:44;5.87;;;3.90;;
12155;SDS011;6141;49.092;8.516;2022-08-25T23:52:34;7.17;;;3.90;;
12155;SDS011;6141;49.092;8.516;2022-08-25T23:55:28;4.47;;;3.90;;
12155;SDS011;6141;49.092;8.516;2022-08-25T23:59:15;5.87;;;3.60;;
